sensor_id;sensor_type;location;lat;lon;timestamp;P1;durP1;ratioP1;P2;durP2;ratioP2
83184;SDS011;73080;48.768;11.528;2024-02-04T00:00:59;4.40;;;1.60;;
83184;SDS011;73080;48.768;11.528;2024-02-04T00:03:27;4.18;;;1.50;;
83184;SDS011;73080;48.768;11.528;2024-02-04T00:05:52;3.70;;;1.77;;
83184;SDS011;73080;48.768;11.528;2024-02-04T00:08:20;3.80;;;1.63;;
83184;SDS011;73080;48.768;11.528;2024-02-04T00:10:46;3.17;;;1.30;;
83184;SDS011;73080;48.768;11.528;2024-02-04T00:13:11;4.37;;;1.90;;
83184;SDS011;73080;48.768;11.528;2024-02-04T00:15:36;3.90;;;1.80;;
83184;SDS011;73080;48.768;11.528;2024-02-04T00:18:02;4.40;;;1.70;;
83184;SDS011;73080;48.768;11.528;2024-02-04T00:20:27;4.57;;;1.85;;
83184;SDS011;73080;48.768;11.528;2024-02-04T00:22:52;3.73;;;1.70;;
83184;SDS011;73080;48.768;11.528;2024-02-04T00:25:17;3.77;;;1.90;;
83184;SDS011;73080;48.768;11.528;2024-02-04T00:27:43;4.83;;;1.93;;
83184;SDS011;73080;48.768;11.528;2024-02-04T00:30:08;4.10;;;1.80;;
83184;SDS011;73080;48.768;11.528;2024-02-04T00:32:34;4.03;;;1.67;;
83184;SDS011;73080;48.768;11.528;2024-02-04T00:34:59;4.00;;;1.90;;
83184;SDS011;73080;48.768;11.528;2024-02-04T00:37:24;5.10;;;2.77;;
83184;SDS011;73080;48.768;11.528;2024-02-04T00:39:49;5.17;;;2.20;;
83184;SDS011;73080;48.768;11.528;2024-02-04T00:42:15;5.00;;;2.20;;
83184;SDS011;73080;48.768;11.528;2024-02-04T00:44:40;4.80;;;2.57;;
83184;SDS011;73080;48.768;11.528;2024-02-04T00:47:05;4.68;;;2.63;;
83184;SDS011;73080;48.768;11.528;2024-02-04T00:49:31;5.03;;;2.70;;
83184;SDS011;73080;48.768;11.528;2024-02-04T00:51:56;5.75;;;2.92;;
83184;SDS011;73080;48.768;11.528;2024-02-04T00:54:22;4.72;;;2.50;;
83184;SDS011;73080;48.768;11.528;2024-02-04T00:56:47;6.10;;;3.60;;
83184;SDS011;73080;48.768;11.528;2024-02-04T00:59:12;5.33;;;3.37;;
83184;SDS011;73080;48.768;11.528;2024-02-04T01:01:40;5.70;;;2.93;;
83184;SDS011;73080;48.768;11.528;2024-02-04T01:04:06;6.32;;;2.70;;
83184;SDS011;73080;48.768;11.528;2024-02-04T01:06:31;6.63;;;2.70;;
83184;SDS011;73080;48.768;11.528;2024-02-04T01:08:56;7.32;;;3.22;;
83184;SDS011;73080;48.768;11.528;2024-02-04T01:11:25;5.00;;;2.60;;
83184;SDS011;73080;48.768;11.528;2024-02-04T01:16:15;5.50;;;2.85;;
83184;SDS011;73080;48.768;11.528;2024-02-04T01:18:41;5.93;;;3.03;;
83184;SDS011;73080;48.768;11.528;2024-02-04T01:21:06;5.50;;;2.60;;
83184;SDS011;73080;48.768;11.528;2024-02-04T01:23:34;4.97;;;2.72;;
83184;SDS011;73080;48.768;11.528;2024-02-04T01:26:00;5.07;;;2.55;;
83184;SDS011;73080;48.768;11.528;2024-02-04T01:28:25;5.13;;;2.42;;
83184;SDS011;73080;48.768;11.528;2024-02-04T01:30:51;4.63;;;2.67;;
83184;SDS011;73080;48.768;11.528;2024-02-04T01:33:19;4.70;;;2.50;;
83184;SDS011;73080;48.768;11.528;2024-02-04T01:35:44;6.22;;;2.20;;
83184;SDS011;73080;48.768;11.528;2024-02-04T01:38:10;5.50;;;2.65;;
83184;SDS011;73080;48.768;11.528;2024-02-04T01:40:35;4.45;;;2.38;;
83184;SDS011;73080;48.768;11.528;2024-02-04T01:43:00;5.05;;;2.60;;
83184;SDS011;73080;48.768;11.528;2024-02-04T01:45:26;5.73;;;2.40;;
83184;SDS011;73080;48.768;11.528;2024-02-04T01:47:51;4.85;;;2.67;;
83184;SDS011;73080;48.768;11.528;2024-02-04T01:50:16;4.57;;;1.90;;
83184;SDS011;73080;48.768;11.528;2024-02-04T01:52:42;4.60;;;2.17;;
83184;SDS011;73080;48.768;11.528;2024-02-04T01:55:09;4.45;;;2.15;;
83184;SDS011;73080;48.768;11.528;2024-02-04T01:57:35;4.88;;;1.75;;
83184;SDS011;73080;48.768;11.528;2024-02-04T02:00:02;4.78;;;1.90;;
83184;SDS011;73080;48.768;11.528;2024-02-04T02:02:27;3.85;;;1.75;;
83184;SDS011;73080;48.768;11.528;2024-02-04T02:04:53;4.63;;;1.77;;
83184;SDS011;73080;48.768;11.528;2024-02-04T02:07:18;3.72;;;1.70;;
83184;SDS011;73080;48.768;11.528;2024-02-04T02:09:44;3.72;;;1.70;;
83184;SDS011;73080;48.768;11.528;2024-02-04T02:12:11;4.00;;;1.83;;
83184;SDS011;73080;48.768;11.528;2024-02-04T02:14:46;5.00;;;1.80;;
83184;SDS011;73080;48.768;11.528;2024-02-04T02:17:20;4.05;;;1.80;;
83184;SDS011;73080;48.768;11.528;2024-02-04T02:25:28;3.78;;;1.52;;
83184;SDS011;73080;48.768;11.528;2024-02-04T02:27:55;4.00;;;1.70;;
83184;SDS011;73080;48.768;11.528;2024-02-04T02:30:24;3.72;;;1.63;;
83184;SDS011;73080;48.768;11.528;2024-02-04T02:32:49;3.38;;;1.50;;
83184;SDS011;73080;48.768;11.528;2024-02-04T02:35:15;3.72;;;1.40;;
83184;SDS011;73080;48.768;11.528;2024-02-04T02:42:50;3.07;;;1.10;;
83184;SDS011;73080;48.768;11.528;2024-02-04T02:45:17;3.22;;;1.45;;
83184;SDS011;73080;48.768;11.528;2024-02-04T02:47:45;3.15;;;1.20;;
83184;SDS011;73080;48.768;11.528;2024-02-04T02:50:12;3.90;;;1.75;;
83184;SDS011;73080;48.768;11.528;2024-02-04T02:52:38;2.80;;;1.10;;
83184;SDS011;73080;48.768;11.528;2024-02-04T02:55:07;4.03;;;1.45;;
83184;SDS011;73080;48.768;11.528;2024-02-04T02:57:32;3.03;;;1.25;;
83184;SDS011;73080;48.768;11.528;2024-02-04T02:59:57;2.83;;;1.20;;
83184;SDS011;73080;48.768;11.528;2024-02-04T03:02:23;3.03;;;1.35;;
83184;SDS011;73080;48.768;11.528;2024-02-04T03:04:48;3.23;;;1.30;;
83184;SDS011;73080;48.768;11.528;2024-02-04T03:07:14;3.72;;;1.33;;
83184;SDS011;73080;48.768;11.528;2024-02-04T03:09:39;3.30;;;1.17;;
83184;SDS011;73080;48.768;11.528;2024-02-04T03:12:04;3.78;;;1.45;;
83184;SDS011;73080;48.768;11.528;2024-02-04T03:14:30;3.13;;;1.23;;
83184;SDS011;73080;48.768;11.528;2024-02-04T03:16:58;3.60;;;1.35;;
83184;SDS011;73080;48.768;11.528;2024-02-04T03:21:49;3.70;;;1.23;;
83184;SDS011;73080;48.768;11.528;2024-02-04T03:24:17;5.57;;;1.60;;
83184;SDS011;73080;48.768;11.528;2024-02-04T03:29:08;3.30;;;1.30;;
83184;SDS011;73080;48.768;11.528;2024-02-04T03:31:33;3.72;;;1.40;;
83184;SDS011;73080;48.768;11.528;2024-02-04T03:33:59;3.42;;;1.27;;
83184;SDS011;73080;48.768;11.528;2024-02-04T03:36:24;3.33;;;1.37;;
83184;SDS011;73080;48.768;11.528;2024-02-04T03:38:50;3.67;;;1.48;;
83184;SDS011;73080;48.768;11.528;2024-02-04T03:41:16;3.55;;;1.45;;
83184;SDS011;73080;48.768;11.528;2024-02-04T03:43:41;3.78;;;1.48;;
83184;SDS011;73080;48.768;11.528;2024-02-04T03:46:07;4.20;;;1.90;;
83184;SDS011;73080;48.768;11.528;2024-02-04T03:48:32;3.90;;;1.50;;
83184;SDS011;73080;48.768;11.528;2024-02-04T03:50:57;3.83;;;1.60;;
83184;SDS011;73080;48.768;11.528;2024-02-04T03:53:22;3.37;;;1.60;;
83184;SDS011;73080;48.768;11.528;2024-02-04T03:55:48;4.80;;;1.67;;
83184;SDS011;73080;48.768;11.528;2024-02-04T03:58:14;3.63;;;1.42;;
83184;SDS011;73080;48.768;11.528;2024-02-04T04:00:42;3.17;;;1.40;;
83184;SDS011;73080;48.768;11.528;2024-02-04T04:03:07;3.53;;;1.40;;
83184;SDS011;73080;48.768;11.528;2024-02-04T04:05:32;3.50;;;1.43;;
83184;SDS011;73080;48.768;11.528;2024-02-04T04:07:58;4.43;;;1.98;;
83184;SDS011;73080;48.768;11.528;2024-02-04T04:10:23;3.90;;;1.30;;
83184;SDS011;73080;48.768;11.528;2024-02-04T04:12:52;4.45;;;1.67;;
83184;SDS011;73080;48.768;11.528;2024-02-04T04:15:17;3.53;;;1.52;;
83184;SDS011;73080;48.768;11.528;2024-02-04T04:17:46;5.05;;;1.45;;
83184;SDS011;73080;48.768;11.528;2024-02-04T04:22:38;2.90;;;1.20;;
83184;SDS011;73080;48.768;11.528;2024-02-04T04:25:07;3.80;;;1.70;;
83184;SDS011;73080;48.768;11.528;2024-02-04T04:27:33;3.42;;;1.48;;
83184;SDS011;73080;48.768;11.528;2024-02-04T04:29:59;4.40;;;1.50;;
83184;SDS011;73080;48.768;11.528;2024-02-04T04:32:24;4.05;;;1.60;;
83184;SDS011;73080;48.768;11.528;2024-02-04T04:34:50;3.60;;;1.55;;
83184;SDS011;73080;48.768;11.528;2024-02-04T04:37:15;3.10;;;1.20;;
83184;SDS011;73080;48.768;11.528;2024-02-04T04:39:40;5.43;;;1.85;;
83184;SDS011;73080;48.768;11.528;2024-02-04T04:42:06;3.75;;;1.73;;
83184;SDS011;73080;48.768;11.528;2024-02-04T04:44:31;3.20;;;1.10;;
83184;SDS011;73080;48.768;11.528;2024-02-04T04:46:57;3.95;;;1.52;;
83184;SDS011;73080;48.768;11.528;2024-02-04T04:49:22;3.85;;;1.50;;
83184;SDS011;73080;48.768;11.528;2024-02-04T04:51:47;4.30;;;2.00;;
83184;SDS011;73080;48.768;11.528;2024-02-04T04:54:13;3.67;;;1.50;;
83184;SDS011;73080;48.768;11.528;2024-02-04T04:56:38;3.85;;;1.63;;
83184;SDS011;73080;48.768;11.528;2024-02-04T04:59:05;3.88;;;1.50;;
83184;SDS011;73080;48.768;11.528;2024-02-04T05:01:34;3.97;;;1.77;;
83184;SDS011;73080;48.768;11.528;2024-02-04T05:04:02;2.42;;;1.00;;
83184;SDS011;73080;48.768;11.528;2024-02-04T05:06:28;4.22;;;1.80;;
83184;SDS011;73080;48.768;11.528;2024-02-04T05:08:53;4.00;;;1.90;;
83184;SDS011;73080;48.768;11.528;2024-02-04T05:11:19;3.85;;;1.50;;
83184;SDS011;73080;48.768;11.528;2024-02-04T05:13:44;4.80;;;1.77;;
83184;SDS011;73080;48.768;11.528;2024-02-04T05:16:09;4.30;;;2.10;;
83184;SDS011;73080;48.768;11.528;2024-02-04T05:18:35;4.20;;;1.63;;
83184;SDS011;73080;48.768;11.528;2024-02-04T05:21:03;4.33;;;1.87;;
83184;SDS011;73080;48.768;11.528;2024-02-04T05:23:31;4.53;;;2.28;;
83184;SDS011;73080;48.768;11.528;2024-02-04T05:28:22;4.37;;;2.20;;
83184;SDS011;73080;48.768;11.528;2024-02-04T05:30:47;3.75;;;1.70;;
83184;SDS011;73080;48.768;11.528;2024-02-04T05:33:13;4.28;;;1.85;;
83184;SDS011;73080;48.768;11.528;2024-02-04T05:35:39;4.25;;;2.00;;
83184;SDS011;73080;48.768;11.528;2024-02-04T05:38:04;4.77;;;2.57;;
83184;SDS011;73080;48.768;11.528;2024-02-04T05:40:29;3.90;;;2.10;;
83184;SDS011;73080;48.768;11.528;2024-02-04T05:42:55;5.63;;;1.80;;
83184;SDS011;73080;48.768;11.528;2024-02-04T05:45:20;3.47;;;1.53;;
83184;SDS011;73080;48.768;11.528;2024-02-04T05:47:45;3.77;;;1.83;;
83184;SDS011;73080;48.768;11.528;2024-02-04T05:50:11;3.80;;;1.65;;
83184;SDS011;73080;48.768;11.528;2024-02-04T05:55:39;4.25;;;1.85;;
83184;SDS011;73080;48.768;11.528;2024-02-04T05:58:04;5.35;;;2.50;;
83184;SDS011;73080;48.768;11.528;2024-02-04T06:00:32;4.57;;;1.97;;
83184;SDS011;73080;48.768;11.528;2024-02-04T06:02:57;4.57;;;1.92;;
83184;SDS011;73080;48.768;11.528;2024-02-04T06:05:23;3.95;;;1.80;;
83184;SDS011;73080;48.768;11.528;2024-02-04T06:07:48;4.65;;;1.75;;
83184;SDS011;73080;48.768;11.528;2024-02-04T06:10:13;4.43;;;1.70;;
83184;SDS011;73080;48.768;11.528;2024-02-04T06:12:39;4.40;;;1.88;;
83184;SDS011;73080;48.768;11.528;2024-02-04T06:15:04;4.28;;;1.63;;
83184;SDS011;73080;48.768;11.528;2024-02-04T06:17:30;3.95;;;1.42;;
83184;SDS011;73080;48.768;11.528;2024-02-04T06:19:56;3.88;;;1.67;;
83184;SDS011;73080;48.768;11.528;2024-02-04T06:22:21;3.40;;;1.63;;
83184;SDS011;73080;48.768;11.528;2024-02-04T06:24:46;3.83;;;1.65;;
83184;SDS011;73080;48.768;11.528;2024-02-04T06:27:15;3.73;;;1.60;;
83184;SDS011;73080;48.768;11.528;2024-02-04T06:29:40;3.80;;;1.70;;
83184;SDS011;73080;48.768;11.528;2024-02-04T06:32:06;3.92;;;1.70;;
83184;SDS011;73080;48.768;11.528;2024-02-04T06:34:31;3.95;;;1.63;;
83184;SDS011;73080;48.768;11.528;2024-02-04T06:36:56;4.00;;;1.97;;
83184;SDS011;73080;48.768;11.528;2024-02-04T06:39:21;4.23;;;1.47;;
83184;SDS011;73080;48.768;11.528;2024-02-04T06:41:47;4.17;;;1.77;;
83184;SDS011;73080;48.768;11.528;2024-02-04T06:44:12;3.65;;;1.65;;
83184;SDS011;73080;48.768;11.528;2024-02-04T06:46:38;4.18;;;1.60;;
83184;SDS011;73080;48.768;11.528;2024-02-04T06:49:03;4.50;;;1.95;;
83184;SDS011;73080;48.768;11.528;2024-02-04T06:51:28;3.58;;;1.52;;
83184;SDS011;73080;48.768;11.528;2024-02-04T06:53:54;5.78;;;1.77;;
83184;SDS011;73080;48.768;11.528;2024-02-04T06:56:19;4.43;;;1.80;;
83184;SDS011;73080;48.768;11.528;2024-02-04T06:58:45;3.83;;;1.60;;
83184;SDS011;73080;48.768;11.528;2024-02-04T07:01:13;4.30;;;1.90;;
83184;SDS011;73080;48.768;11.528;2024-02-04T07:03:38;3.40;;;1.33;;
83184;SDS011;73080;48.768;11.528;2024-02-04T07:06:03;4.13;;;1.88;;
83184;SDS011;73080;48.768;11.528;2024-02-04T07:08:29;4.65;;;2.38;;
83184;SDS011;73080;48.768;11.528;2024-02-04T07:11:04;4.10;;;2.15;;
83184;SDS011;73080;48.768;11.528;2024-02-04T07:13:29;4.15;;;1.85;;
83184;SDS011;73080;48.768;11.528;2024-02-04T07:15:54;4.50;;;2.70;;
83184;SDS011;73080;48.768;11.528;2024-02-04T07:18:20;6.25;;;2.05;;
83184;SDS011;73080;48.768;11.528;2024-02-04T07:20:45;4.78;;;2.22;;
83184;SDS011;73080;48.768;11.528;2024-02-04T07:23:13;4.40;;;2.20;;
83184;SDS011;73080;48.768;11.528;2024-02-04T07:28:04;4.85;;;2.25;;
83184;SDS011;73080;48.768;11.528;2024-02-04T07:30:32;4.25;;;1.98;;
83184;SDS011;73080;48.768;11.528;2024-02-04T07:32:57;3.20;;;1.70;;
83184;SDS011;73080;48.768;11.528;2024-02-04T07:35:22;3.40;;;1.30;;
83184;SDS011;73080;48.768;11.528;2024-02-04T07:37:48;4.50;;;2.17;;
83184;SDS011;73080;48.768;11.528;2024-02-04T07:40:13;4.43;;;2.10;;
83184;SDS011;73080;48.768;11.528;2024-02-04T07:42:44;5.40;;;1.87;;
83184;SDS011;73080;48.768;11.528;2024-02-04T07:45:12;5.20;;;2.17;;
83184;SDS011;73080;48.768;11.528;2024-02-04T07:47:37;4.38;;;2.15;;
83184;SDS011;73080;48.768;11.528;2024-02-04T07:50:03;4.27;;;2.00;;
83184;SDS011;73080;48.768;11.528;2024-02-04T07:52:28;4.55;;;2.05;;
83184;SDS011;73080;48.768;11.528;2024-02-04T07:54:54;4.68;;;2.40;;
83184;SDS011;73080;48.768;11.528;2024-02-04T07:57:19;4.90;;;2.70;;
83184;SDS011;73080;48.768;11.528;2024-02-04T07:59:51;6.00;;;2.58;;
83184;SDS011;73080;48.768;11.528;2024-02-04T08:02:16;5.13;;;2.23;;
83184;SDS011;73080;48.768;11.528;2024-02-04T08:04:41;5.20;;;2.00;;
83184;SDS011;73080;48.768;11.528;2024-02-04T08:07:07;4.80;;;2.10;;
83184;SDS011;73080;48.768;11.528;2024-02-04T08:09:32;4.97;;;2.30;;
83184;SDS011;73080;48.768;11.528;2024-02-04T08:11:57;5.20;;;2.40;;
83184;SDS011;73080;48.768;11.528;2024-02-04T08:14:22;5.30;;;2.20;;
83184;SDS011;73080;48.768;11.528;2024-02-04T08:16:48;5.43;;;2.57;;
83184;SDS011;73080;48.768;11.528;2024-02-04T08:19:13;4.73;;;2.17;;
83184;SDS011;73080;48.768;11.528;2024-02-04T08:21:38;5.33;;;2.17;;
83184;SDS011;73080;48.768;11.528;2024-02-04T08:24:03;5.70;;;2.60;;
83184;SDS011;73080;48.768;11.528;2024-02-04T08:26:29;4.55;;;2.05;;
83184;SDS011;73080;48.768;11.528;2024-02-04T08:28:54;5.37;;;2.47;;
83184;SDS011;73080;48.768;11.528;2024-02-04T08:31:19;5.80;;;2.80;;
83184;SDS011;73080;48.768;11.528;2024-02-04T08:33:44;4.07;;;2.07;;
83184;SDS011;73080;48.768;11.528;2024-02-04T08:36:10;5.37;;;2.23;;
83184;SDS011;73080;48.768;11.528;2024-02-04T08:38:35;6.53;;;2.70;;
83184;SDS011;73080;48.768;11.528;2024-02-04T08:41:01;5.10;;;2.17;;
83184;SDS011;73080;48.768;11.528;2024-02-04T08:43:26;5.27;;;2.27;;
83184;SDS011;73080;48.768;11.528;2024-02-04T08:45:51;5.70;;;2.20;;
83184;SDS011;73080;48.768;11.528;2024-02-04T08:48:16;6.13;;;2.10;;
83184;SDS011;73080;48.768;11.528;2024-02-04T08:50:41;5.13;;;2.07;;
83184;SDS011;73080;48.768;11.528;2024-02-04T08:53:07;5.50;;;2.47;;
83184;SDS011;73080;48.768;11.528;2024-02-04T08:55:32;5.67;;;2.57;;
83184;SDS011;73080;48.768;11.528;2024-02-04T08:57:57;6.03;;;2.97;;
83184;SDS011;73080;48.768;11.528;2024-02-04T09:00:22;7.10;;;2.93;;
83184;SDS011;73080;48.768;11.528;2024-02-04T09:02:48;5.07;;;2.30;;
83184;SDS011;73080;48.768;11.528;2024-02-04T09:05:13;4.90;;;2.20;;
83184;SDS011;73080;48.768;11.528;2024-02-04T09:07:38;5.03;;;2.50;;
83184;SDS011;73080;48.768;11.528;2024-02-04T09:10:03;5.53;;;2.63;;
83184;SDS011;73080;48.768;11.528;2024-02-04T09:12:29;6.40;;;2.88;;
83184;SDS011;73080;48.768;11.528;2024-02-04T09:14:54;5.03;;;2.40;;
83184;SDS011;73080;48.768;11.528;2024-02-04T09:17:19;5.53;;;2.50;;
83184;SDS011;73080;48.768;11.528;2024-02-04T09:19:45;5.20;;;2.13;;
83184;SDS011;73080;48.768;11.528;2024-02-04T09:22:10;7.33;;;2.03;;
83184;SDS011;73080;48.768;11.528;2024-02-04T09:24:35;5.27;;;2.27;;
83184;SDS011;73080;48.768;11.528;2024-02-04T09:27:00;4.83;;;2.20;;
83184;SDS011;73080;48.768;11.528;2024-02-04T09:29:26;5.17;;;2.17;;
83184;SDS011;73080;48.768;11.528;2024-02-04T09:31:51;5.23;;;2.00;;
83184;SDS011;73080;48.768;11.528;2024-02-04T09:34:16;5.93;;;2.10;;
83184;SDS011;73080;48.768;11.528;2024-02-04T09:36:43;5.05;;;2.30;;
83184;SDS011;73080;48.768;11.528;2024-02-04T09:39:08;5.53;;;2.40;;
83184;SDS011;73080;48.768;11.528;2024-02-04T09:41:34;5.80;;;2.70;;
83184;SDS011;73080;48.768;11.528;2024-02-04T09:43:59;5.10;;;1.83;;
83184;SDS011;73080;48.768;11.528;2024-02-04T09:46:25;5.80;;;2.30;;
83184;SDS011;73080;48.768;11.528;2024-02-04T09:48:51;5.15;;;2.03;;
83184;SDS011;73080;48.768;11.528;2024-02-04T09:51:18;8.80;;;2.55;;
83184;SDS011;73080;48.768;11.528;2024-02-04T09:53:44;4.30;;;1.70;;
83184;SDS011;73080;48.768;11.528;2024-02-04T09:56:10;4.75;;;2.20;;
83184;SDS011;73080;48.768;11.528;2024-02-04T09:58:37;5.28;;;2.10;;
83184;SDS011;73080;48.768;11.528;2024-02-04T10:01:04;6.53;;;2.45;;
83184;SDS011;73080;48.768;11.528;2024-02-04T10:03:29;5.50;;;2.20;;
83184;SDS011;73080;48.768;11.528;2024-02-04T10:05:55;5.63;;;2.17;;
83184;SDS011;73080;48.768;11.528;2024-02-04T10:08:21;5.07;;;2.20;;
83184;SDS011;73080;48.768;11.528;2024-02-04T10:10:46;5.32;;;2.33;;
83184;SDS011;73080;48.768;11.528;2024-02-04T10:13:12;4.97;;;2.25;;
83184;SDS011;73080;48.768;11.528;2024-02-04T10:15:37;4.93;;;2.37;;
83184;SDS011;73080;48.768;11.528;2024-02-04T10:18:03;5.00;;;2.37;;
83184;SDS011;73080;48.768;11.528;2024-02-04T10:20:29;6.55;;;2.38;;
83184;SDS011;73080;48.768;11.528;2024-02-04T10:22:54;4.97;;;2.50;;
83184;SDS011;73080;48.768;11.528;2024-02-04T10:25:20;5.57;;;2.07;;
83184;SDS011;73080;48.768;11.528;2024-02-04T10:27:46;5.95;;;2.13;;
83184;SDS011;73080;48.768;11.528;2024-02-04T10:30:11;6.27;;;2.30;;
83184;SDS011;73080;48.768;11.528;2024-02-04T10:32:37;5.38;;;1.90;;
83184;SDS011;73080;48.768;11.528;2024-02-04T10:35:03;6.93;;;2.43;;
83184;SDS011;73080;48.768;11.528;2024-02-04T10:37:28;5.57;;;2.40;;
83184;SDS011;73080;48.768;11.528;2024-02-04T10:39:53;6.27;;;2.37;;
83184;SDS011;73080;48.768;11.528;2024-02-04T10:42:21;5.53;;;2.07;;
83184;SDS011;73080;48.768;11.528;2024-02-04T10:44:49;5.70;;;2.35;;
83184;SDS011;73080;48.768;11.528;2024-02-04T10:47:19;5.60;;;2.40;;
83184;SDS011;73080;48.768;11.528;2024-02-04T10:49:50;4.72;;;1.92;;
83184;SDS011;73080;48.768;11.528;2024-02-04T10:52:16;5.65;;;1.73;;
83184;SDS011;73080;48.768;11.528;2024-02-04T10:54:42;4.72;;;2.17;;
83184;SDS011;73080;48.768;11.528;2024-02-04T10:57:10;3.90;;;1.60;;
83184;SDS011;73080;48.768;11.528;2024-02-04T10:59:38;5.38;;;1.85;;
83184;SDS011;73080;48.768;11.528;2024-02-04T11:02:05;4.45;;;2.20;;
83184;SDS011;73080;48.768;11.528;2024-02-04T11:04:30;4.63;;;2.00;;
83184;SDS011;73080;48.768;11.528;2024-02-04T11:06:57;4.10;;;1.38;;
83184;SDS011;73080;48.768;11.528;2024-02-04T11:09:23;4.47;;;1.65;;
83184;SDS011;73080;48.768;11.528;2024-02-04T11:11:49;4.15;;;1.48;;
83184;SDS011;73080;48.768;11.528;2024-02-04T11:14:16;3.67;;;1.70;;
83184;SDS011;73080;48.768;11.528;2024-02-04T11:27:24;3.92;;;1.50;;
83184;SDS011;73080;48.768;11.528;2024-02-04T11:29:51;4.22;;;1.75;;
83184;SDS011;73080;48.768;11.528;2024-02-04T11:32:17;4.10;;;1.80;;
83184;SDS011;73080;48.768;11.528;2024-02-04T11:34:43;5.07;;;1.83;;
83184;SDS011;73080;48.768;11.528;2024-02-04T11:37:16;4.28;;;1.80;;
83184;SDS011;73080;48.768;11.528;2024-02-04T11:39:50;4.05;;;1.83;;
83184;SDS011;73080;48.768;11.528;2024-02-04T11:42:17;3.50;;;1.30;;
83184;SDS011;73080;48.768;11.528;2024-02-04T11:44:43;3.97;;;1.20;;
83184;SDS011;73080;48.768;11.528;2024-02-04T11:47:09;4.10;;;1.52;;
83184;SDS011;73080;48.768;11.528;2024-02-04T11:49:34;5.70;;;1.70;;
83184;SDS011;73080;48.768;11.528;2024-02-04T11:51:59;4.87;;;1.60;;
83184;SDS011;73080;48.768;11.528;2024-02-04T11:54:25;4.03;;;1.80;;
83184;SDS011;73080;48.768;11.528;2024-02-04T11:56:51;5.43;;;1.67;;
83184;SDS011;73080;48.768;11.528;2024-02-04T11:59:16;4.22;;;1.40;;
83184;SDS011;73080;48.768;11.528;2024-02-04T12:01:42;4.43;;;2.10;;
83184;SDS011;73080;48.768;11.528;2024-02-04T12:04:10;4.10;;;1.50;;
83184;SDS011;73080;48.768;11.528;2024-02-04T12:06:40;4.47;;;1.83;;
83184;SDS011;73080;48.768;11.528;2024-02-04T12:09:06;4.20;;;1.70;;
83184;SDS011;73080;48.768;11.528;2024-02-04T12:11:34;4.57;;;1.48;;
83184;SDS011;73080;48.768;11.528;2024-02-04T12:14:03;3.85;;;1.30;;
83184;SDS011;73080;48.768;11.528;2024-02-04T12:16:29;3.50;;;1.38;;
83184;SDS011;73080;48.768;11.528;2024-02-04T12:18:54;3.37;;;1.33;;
83184;SDS011;73080;48.768;11.528;2024-02-04T12:21:22;3.83;;;1.52;;
83184;SDS011;73080;48.768;11.528;2024-02-04T12:23:47;4.20;;;1.30;;
83184;SDS011;73080;48.768;11.528;2024-02-04T12:26:13;3.80;;;1.30;;
83184;SDS011;73080;48.768;11.528;2024-02-04T12:28:38;3.70;;;1.45;;
83184;SDS011;73080;48.768;11.528;2024-02-04T12:31:04;3.90;;;1.43;;
83184;SDS011;73080;48.768;11.528;2024-02-04T12:33:29;4.00;;;1.30;;
83184;SDS011;73080;48.768;11.528;2024-02-04T12:35:54;3.40;;;1.40;;
83184;SDS011;73080;48.768;11.528;2024-02-04T12:38:19;4.07;;;1.60;;
83184;SDS011;73080;48.768;11.528;2024-02-04T12:40:44;3.50;;;1.20;;
83184;SDS011;73080;48.768;11.528;2024-02-04T12:43:10;3.17;;;1.37;;
83184;SDS011;73080;48.768;11.528;2024-02-04T12:45:36;4.68;;;1.23;;
83184;SDS011;73080;48.768;11.528;2024-02-04T12:48:02;3.58;;;1.20;;
83184;SDS011;73080;48.768;11.528;2024-02-04T12:50:27;3.70;;;1.73;;
83184;SDS011;73080;48.768;11.528;2024-02-04T12:55:28;3.97;;;1.25;;
83184;SDS011;73080;48.768;11.528;2024-02-04T12:58:07;4.90;;;1.17;;
83184;SDS011;73080;48.768;11.528;2024-02-04T13:03:00;3.78;;;1.27;;
83184;SDS011;73080;48.768;11.528;2024-02-04T13:05:26;3.60;;;1.45;;
83184;SDS011;73080;48.768;11.528;2024-02-04T13:07:54;4.90;;;1.58;;
83184;SDS011;73080;48.768;11.528;2024-02-04T13:10:24;3.25;;;0.90;;
83184;SDS011;73080;48.768;11.528;2024-02-04T13:13:06;4.63;;;1.40;;
83184;SDS011;73080;48.768;11.528;2024-02-04T13:15:42;3.90;;;1.45;;
83184;SDS011;73080;48.768;11.528;2024-02-04T13:18:08;3.10;;;1.10;;
83184;SDS011;73080;48.768;11.528;2024-02-04T13:20:34;2.83;;;1.00;;
83184;SDS011;73080;48.768;11.528;2024-02-04T13:23:00;4.18;;;1.33;;
83184;SDS011;73080;48.768;11.528;2024-02-04T13:25:25;3.83;;;1.47;;
83184;SDS011;73080;48.768;11.528;2024-02-04T13:27:50;3.17;;;1.15;;
83184;SDS011;73080;48.768;11.528;2024-02-04T13:30:17;2.47;;;0.95;;
83184;SDS011;73080;48.768;11.528;2024-02-04T13:32:42;4.40;;;1.30;;
83184;SDS011;73080;48.768;11.528;2024-02-04T13:35:08;3.25;;;1.20;;
83184;SDS011;73080;48.768;11.528;2024-02-04T13:37:42;3.85;;;1.17;;
83184;SDS011;73080;48.768;11.528;2024-02-04T13:40:09;3.28;;;1.10;;
83184;SDS011;73080;48.768;11.528;2024-02-04T13:42:35;3.10;;;1.20;;
83184;SDS011;73080;48.768;11.528;2024-02-04T13:45:00;2.70;;;1.02;;
83184;SDS011;73080;48.768;11.528;2024-02-04T13:47:26;4.13;;;1.65;;
83184;SDS011;73080;48.768;11.528;2024-02-04T13:49:51;2.87;;;0.90;;
83184;SDS011;73080;48.768;11.528;2024-02-04T13:52:16;3.33;;;1.20;;
83184;SDS011;73080;48.768;11.528;2024-02-04T13:54:41;3.87;;;1.20;;
83184;SDS011;73080;48.768;11.528;2024-02-04T13:57:07;4.20;;;1.30;;
83184;SDS011;73080;48.768;11.528;2024-02-04T13:59:32;4.20;;;1.20;;
83184;SDS011;73080;48.768;11.528;2024-02-04T14:01:57;4.67;;;1.30;;
83184;SDS011;73080;48.768;11.528;2024-02-04T14:04:22;4.57;;;1.33;;
83184;SDS011;73080;48.768;11.528;2024-02-04T14:06:47;4.67;;;1.30;;
83184;SDS011;73080;48.768;11.528;2024-02-04T14:09:13;3.57;;;1.27;;
83184;SDS011;73080;48.768;11.528;2024-02-04T14:11:38;3.77;;;1.40;;
83184;SDS011;73080;48.768;11.528;2024-02-04T14:14:03;5.57;;;2.20;;
83184;SDS011;73080;48.768;11.528;2024-02-04T14:16:29;4.93;;;1.50;;
83184;SDS011;73080;48.768;11.528;2024-02-04T14:18:54;5.20;;;1.90;;
83184;SDS011;73080;48.768;11.528;2024-02-04T14:21:19;4.60;;;1.47;;
83184;SDS011;73080;48.768;11.528;2024-02-04T14:23:44;4.00;;;1.47;;
83184;SDS011;73080;48.768;11.528;2024-02-04T14:26:19;4.07;;;1.60;;
83184;SDS011;73080;48.768;11.528;2024-02-04T14:28:45;6.10;;;1.65;;
83184;SDS011;73080;48.768;11.528;2024-02-04T14:31:10;3.78;;;1.20;;
83184;SDS011;73080;48.768;11.528;2024-02-04T14:33:36;3.57;;;1.30;;
83184;SDS011;73080;48.768;11.528;2024-02-04T14:36:01;3.57;;;1.40;;
83184;SDS011;73080;48.768;11.528;2024-02-04T14:38:26;3.80;;;1.60;;
83184;SDS011;73080;48.768;11.528;2024-02-04T14:40:52;3.63;;;1.27;;
83184;SDS011;73080;48.768;11.528;2024-02-04T14:43:17;3.85;;;1.30;;
83184;SDS011;73080;48.768;11.528;2024-02-04T14:45:42;4.63;;;1.27;;
83184;SDS011;73080;48.768;11.528;2024-02-04T14:48:07;3.13;;;1.20;;
83184;SDS011;73080;48.768;11.528;2024-02-04T14:50:33;3.73;;;1.17;;
83184;SDS011;73080;48.768;11.528;2024-02-04T14:52:58;3.43;;;1.17;;
83184;SDS011;73080;48.768;11.528;2024-02-04T14:55:23;3.23;;;1.00;;
83184;SDS011;73080;48.768;11.528;2024-02-04T14:57:48;5.37;;;1.57;;
83184;SDS011;73080;48.768;11.528;2024-02-04T15:00:14;5.33;;;1.77;;
83184;SDS011;73080;48.768;11.528;2024-02-04T15:02:39;4.35;;;1.98;;
83184;SDS011;73080;48.768;11.528;2024-02-04T15:05:05;5.43;;;1.60;;
83184;SDS011;73080;48.768;11.528;2024-02-04T15:07:30;5.68;;;1.77;;
83184;SDS011;73080;48.768;11.528;2024-02-04T15:09:55;3.53;;;1.30;;